Time;durP1;ratioP1;P1;durP2;ratioP2;P2;SDS_P1;SDS_P2;PMS_P1;PMS_P2;Temp;Humidity;BMP_temperature;BMP_pressure;BME280_temperature;BME280_humidity;BME280_pressure;Samples;Min_cycle;Max_cycle;Signal;HPM_P1;HPM_P2
2021/01/17 00:00:52;;;;;;;1.70;0.40;;;23.30;49.10;;;;;;5112941;28;20395;-79
2021/01/17 00:03:20;;;;;;;0.68;0.40;;;23.50;49.30;;;;;;5108907;28;20399;-81
2021/01/17 00:05:48;;;;;;;1.35;0.63;;;23.50;49.50;;;;;;5112485;28;20438;-82
2021/01/17 00:08:26;;;;;;;0.98;0.40;;;23.80;53.40;;;;;;5107770;28;20447;-80
2021/01/17 00:10:53;;;;;;;1.52;0.50;;;24.30;49.60;;;;;;5112811;28;20868;-80
2021/01/17 00:13:20;;;;;;;0.70;0.40;;;24.00;48.50;;;;;;5106668;28;20380;-79
2021/01/17 00:15:47;;;;;;;3.05;0.55;;;23.60;50.10;;;;;;5092379;28;20395;-79
2021/01/17 00:18:14;;;;;;;3.38;0.70;;;23.60;49.50;;;;;;5092328;28;20372;-80
2021/01/17 00:20:41;;;;;;;1.63;0.40;;;23.80;49.80;;;;;;5092167;28;20372;-80
2021/01/17 00:23:08;;;;;;;2.90;0.55;;;24.00;50.80;;;;;;5092346;28;20376;-80
2021/01/17 00:25:35;;;;;;;2.58;0.70;;;24.40;51.20;;;;;;5099364;28;20423;-80
2021/01/17 00:28:03;;;;;;;2.73;0.43;;;25.20;47.20;;;;;;5104594;28;20908;-81
2021/01/17 00:30:35;;;;;;;1.90;0.50;;;25.60;45.60;;;;;;5105046;28;20398;-80
2021/01/17 00:33:04;;;;;;;1.88;0.50;;;26.30;45.90;;;;;;5114543;28;20387;-81
2021/01/17 00:35:33;;;;;;;3.30;0.60;;;26.50;42.90;;;;;;5104001;28;20877;-79
2021/01/17 00:38:01;;;;;;;2.30;0.52;;;26.00;42.80;;;;;;5108616;28;20462;-82
2021/01/17 00:40:29;;;;;;;2.20;0.50;;;26.20;46.90;;;;;;5099205;28;20383;-81
2021/01/17 00:42:56;;;;;;;2.30;0.70;;;26.90;43.80;;;;;;5099203;28;20443;-81
2021/01/17 00:45:28;;;;;;;1.70;0.50;;;27.50;45.30;;;;;;5110681;28;20397;-81
2021/01/17 00:47:56;;;;;;;2.70;0.82;;;27.60;41.90;;;;;;5102589;28;20481;-81
2021/01/17 00:50:23;;;;;;;2.08;0.68;;;27.20;44.10;;;;;;5102267;28;20958;-80
2021/01/17 00:52:57;;;;;;;4.22;0.85;;;27.60;42.50;;;;;;5091797;28;20384;-81
2021/01/17 00:55:24;;;;;;;1.85;0.50;;;27.90;44.70;;;;;;5103340;28;20465;-80
2021/01/17 00:57:52;;;;;;;3.33;0.60;;;28.40;40.50;;;;;;5104330;28;20399;-81
2021/01/17 01:00:21;;;;;;;2.58;0.63;;;28.50;44.40;;;;;;5101687;28;21302;-81
2021/01/17 01:02:48;;;;;;;3.40;0.82;;;28.30;42.30;;;;;;5105543;28;20386;-81
2021/01/17 01:05:15;;;;;;;3.15;0.80;;;28.10;44.80;;;;;;5095074;28;20927;-81
2021/01/17 01:07:43;;;;;;;3.28;0.80;;;27.70;42.30;;;;;;5111181;28;20413;-80
2021/01/17 01:10:11;;;;;;;2.00;0.70;;;27.50;44.60;;;;;;5108456;28;20387;-81
2021/01/17 01:12:39;;;;;;;6.35;1.15;;;27.20;45.70;;;;;;5079572;28;20755;-81
2021/01/17 01:15:07;;;;;;;2.67;0.77;;;26.90;47.20;;;;;;5096489;28;20384;-81
2021/01/17 01:17:35;;;;;;;4.63;1.13;;;27.20;51.90;;;;;;5101403;28;20393;-82
2021/01/17 01:20:03;;;;;;;6.03;1.17;;;27.30;50.60;;;;;;5097339;28;20887;-81
2021/01/17 01:22:31;;;;;;;5.22;1.05;;;26.50;52.20;;;;;;5100767;28;20480;-79
2021/01/17 01:24:58;;;;;;;5.40;1.17;;;25.80;53.80;;;;;;5099413;28;20968;-80
2021/01/17 01:27:25;;;;;;;3.45;1.00;;;25.50;55.90;;;;;;5098459;28;20503;-80
2021/01/17 01:29:52;;;;;;;6.28;1.20;;;25.40;59.60;;;;;;5097351;28;20416;-81
2021/01/17 01:32:19;;;;;;;4.30;1.02;;;25.40;54.80;;;;;;5107703;28;20376;-81
2021/01/17 01:34:46;;;;;;;4.90;1.05;;;24.90;55.20;;;;;;5077887;28;20455;-80
2021/01/17 01:37:13;;;;;;;4.13;1.02;;;24.70;57.50;;;;;;5086839;28;20395;-81
2021/01/17 01:39:40;;;;;;;5.53;1.15;;;25.00;59.10;;;;;;5106463;28;20395;-81
2021/01/17 01:42:09;;;;;;;5.55;1.10;;;24.70;59.70;;;;;;5096369;28;20898;-80
2021/01/17 01:44:40;;;;;;;4.25;1.00;;;24.30;61.40;;;;;;5104335;28;20400;-80
2021/01/17 01:47:26;;;;;;;5.17;1.13;;;23.90;62.20;;;;;;5110844;28;20774;-81
2021/01/17 01:49:53;;;;;;;4.38;1.25;;;24.00;63.30;;;;;;5098945;28;20387;-81
2021/01/17 01:52:20;;;;;;;7.00;1.42;;;24.20;61.80;;;;;;5090485;28;20399;-81
2021/01/17 01:54:48;;;;;;;5.07;1.17;;;24.30;63.00;;;;;;5090834;28;20391;-81
2021/01/17 01:57:15;;;;;;;6.85;1.30;;;24.10;62.00;;;;;;5090370;28;20399;-81
2021/01/17 01:59:42;;;;;;;5.47;1.23;;;24.30;62.60;;;;;;5107176;28;20449;-82
2021/01/17 02:02:10;;;;;;;3.17;1.17;;;24.40;63.40;;;;;;5100395;28;20391;-81
2021/01/17 02:04:37;;;;;;;7.27;1.40;;;24.40;62.10;;;;;;5092871;28;20442;-82
2021/01/17 02:07:28;;;;;;;5.88;1.33;;;24.40;61.80;;;;;;5093511;28;20400;-80
2021/01/17 02:09:55;;;;;;;7.18;1.13;;;24.40;62.80;;;;;;5116179;27;20373;-81
2021/01/17 02:12:29;;;;;;;6.43;1.30;;;24.30;62.80;;;;;;5097947;28;20375;-82
2021/01/17 02:15:05;;;;;;;5.70;1.40;;;24.10;64.10;;;;;;5110302;28;20393;-81
2021/01/17 02:17:33;;;;;;;5.65;1.25;;;24.10;63.30;;;;;;5118486;27;20676;-81
2021/01/17 02:20:07;;;;;;;6.35;1.30;;;24.30;64.60;;;;;;5102423;28;20407;-81
2021/01/17 02:23:00;;;;;;;11.82;1.60;;;24.40;63.10;;;;;;5105099;28;20383;-82
2021/01/17 02:25:34;;;;;;;4.63;1.10;;;24.30;63.70;;;;;;5104795;28;20379;-81
2021/01/17 02:28:16;;;;;;;5.75;1.30;;;24.30;64.90;;;;;;5110090;28;20394;-82
2021/01/17 02:30:49;;;;;;;5.63;1.35;;;24.60;62.70;;;;;;5097997;28;20400;-82
2021/01/17 02:33:23;;;;;;;8.60;1.30;;;24.50;61.40;;;;;;5089742;28;20376;-81
2021/01/17 02:35:54;;;;;;;4.30;1.00;;;24.30;61.10;;;;;;5097990;28;20359;-82
2021/01/17 02:38:34;;;;;;;4.90;1.27;;;24.20;63.00;;;;;;5109855;28;20387;-82
2021/01/17 02:41:07;;;;;;;6.00;1.13;;;24.30;62.70;;;;;;5091127;28;20394;-82
2021/01/17 02:43:35;;;;;;;6.20;1.50;;;24.30;59.90;;;;;;5109679;28;20390;-81
2021/01/17 02:46:02;;;;;;;7.90;1.35;;;24.40;63.00;;;;;;5090766;28;22319;-82
2021/01/17 02:48:29;;;;;;;5.95;1.10;;;24.70;63.30;;;;;;5097202;28;20373;-81
2021/01/17 02:50:56;;;;;;;10.45;1.58;;;24.90;61.20;;;;;;5108103;27;20371;-81
2021/01/17 02:53:45;;;;;;;9.43;1.90;;;24.50;65.10;;;;;;5104485;28;20395;-84
2021/01/17 02:56:19;;;;;;;9.05;1.90;;;24.10;67.60;;;;;;5096292;28;20384;-82
2021/01/17 02:58:52;;;;;;;8.60;2.08;;;24.30;68.70;;;;;;5090703;28;20361;-81
2021/01/17 03:01:26;;;;;;;9.80;2.10;;;24.30;66.70;;;;;;5106244;28;20390;-83
2021/01/17 03:04:01;;;;;;;7.47;1.70;;;23.80;68.30;;;;;;5091755;28;20449;-82
2021/01/17 03:06:29;;;;;;;8.73;2.20;;;23.80;68.90;;;;;;5071504;28;20389;-82
2021/01/17 03:08:57;;;;;;;9.20;2.10;;;23.80;69.50;;;;;;5097431;28;20400;-82
2021/01/17 03:11:23;;;;;;;10.27;2.20;;;23.90;71.90;;;;;;5098939;28;20425;-83
2021/01/17 03:13:53;;;;;;;9.70;2.50;;;24.10;71.80;;;;;;5098521;28;20889;-81
2021/01/17 03:16:20;;;;;;;12.93;2.78;;;24.30;69.20;;;;;;5085992;28;20407;-81
2021/01/17 03:18:47;;;;;;;12.00;2.30;;;24.30;69.20;;;;;;5097267;28;20865;-81
2021/01/17 03:21:13;;;;;;;9.52;2.38;;;24.10;70.00;;;;;;5096489;28;20370;-83
2021/01/17 03:23:41;;;;;;;9.00;2.25;;;24.00;71.00;;;;;;5106590;28;20391;-83
2021/01/17 03:26:08;;;;;;;11.02;2.50;;;23.90;71.40;;;;;;5106010;28;20390;-82
2021/01/17 03:28:34;;;;;;;12.23;2.38;;;24.10;73.00;;;;;;5104385;28;20406;-81
2021/01/17 03:31:01;;;;;;;10.40;2.30;;;23.90;70.40;;;;;;5098063;28;20782;-81
2021/01/17 03:33:29;;;;;;;13.32;3.40;;;23.90;72.70;;;;;;5104974;28;20418;-81
2021/01/17 03:35:56;;;;;;;11.32;2.78;;;24.00;72.00;;;;;;5101516;28;20381;-82
2021/01/17 03:38:23;;;;;;;10.10;2.55;;;24.10;71.80;;;;;;5108508;28;20515;-83
2021/01/17 03:40:50;;;;;;;11.80;2.85;;;24.10;71.50;;;;;;5100442;28;20507;-81
2021/01/17 03:43:17;;;;;;;13.68;2.63;;;24.00;71.50;;;;;;5101142;28;20402;-81
2021/01/17 03:45:44;;;;;;;10.07;2.72;;;24.00;73.80;;;;;;5105577;28;20385;-82
2021/01/17 03:48:11;;;;;;;12.10;3.30;;;24.10;73.80;;;;;;5108389;28;21045;-84
2021/01/17 03:50:38;;;;;;;15.00;3.28;;;24.00;73.90;;;;;;5099162;28;20396;-81
2021/01/17 03:53:05;;;;;;;11.13;2.60;;;24.00;72.90;;;;;;5094284;28;20394;-82
2021/01/17 03:55:32;;;;;;;8.90;2.63;;;23.90;73.30;;;;;;5107457;28;20399;-83
2021/01/17 03:57:59;;;;;;;12.63;2.20;;;23.80;72.90;;;;;;5105981;28;20485;-83
2021/01/17 04:00:26;;;;;;;11.77;2.13;;;23.60;73.90;;;;;;5105051;28;20398;-83
2021/01/17 04:02:53;;;;;;;11.10;2.53;;;23.50;73.60;;;;;;5109420;28;20383;-83
2021/01/17 04:05:20;;;;;;;12.15;2.50;;;23.50;74.10;;;;;;5105783;28;20433;-83
2021/01/17 04:07:47;;;;;;;14.15;2.80;;;23.40;73.60;;;;;;5099996;28;20404;-83
2021/01/17 04:10:14;;;;;;;12.00;2.40;;;23.40;73.50;;;;;;5107610;28;20890;-83
2021/01/17 04:12:41;;;;;;;12.48;2.67;;;23.30;73.60;;;;;;5107129;28;20401;-82
2021/01/17 04:15:08;;;;;;;14.07;2.88;;;23.30;74.00;;;;;;5094955;28;20881;-82
2021/01/17 04:17:35;;;;;;;11.32;2.75;;;23.50;74.60;;;;;;5107233;28;20385;-83
2021/01/17 04:20:04;;;;;;;14.73;2.83;;;23.40;72.80;;;;;;5092840;28;20459;-82
2021/01/17 04:22:31;;;;;;;8.80;2.13;;;23.40;74.50;;;;;;5093252;28;20400;-82
2021/01/17 04:24:58;;;;;;;15.32;2.40;;;23.40;70.70;;;;;;5093039;28;20418;-83
2021/01/17 04:27:26;;;;;;;11.50;2.03;;;23.20;73.40;;;;;;5092321;28;20416;-84
2021/01/17 04:29:53;;;;;;;12.13;2.70;;;23.30;73.90;;;;;;5092173;28;20922;-82
2021/01/17 04:32:20;;;;;;;11.75;2.50;;;23.40;73.20;;;;;;5109626;27;20406;-82
2021/01/17 04:34:47;;;;;;;9.50;2.53;;;23.50;73.80;;;;;;5086532;28;20456;-82
2021/01/17 04:37:14;;;;;;;14.85;2.60;;;23.30;72.90;;;;;;5100816;28;20409;-81
2021/01/17 04:39:44;;;;;;;13.93;2.70;;;23.20;72.90;;;;;;5111496;27;20371;-82
2021/01/17 04:42:23;;;;;;;12.57;2.40;;;23.10;74.40;;;;;;5095972;28;20944;-81
2021/01/17 04:45:01;;;;;;;11.20;2.20;;;23.20;73.90;;;;;;5085102;28;20398;-81
2021/01/17 04:47:29;;;;;;;9.82;2.33;;;23.20;75.30;;;;;;5093535;28;20400;-83
2021/01/17 04:50:01;;;;;;;8.70;2.20;;;23.20;73.60;;;;;;5096529;28;20379;-82
2021/01/17 04:52:34;;;;;;;9.95;2.83;;;23.30;75.00;;;;;;5098583;28;20386;-82
2021/01/17 04:55:01;;;;;;;13.70;2.83;;;23.40;75.00;;;;;;5078517;28;20393;-82
2021/01/17 04:57:46;;;;;;;11.35;2.45;;;23.70;73.20;;;;;;5094655;28;20912;-82
2021/01/17 05:00:48;;;;;;;11.68;2.45;;;23.80;73.40;;;;;;5130383;27;20370;-80
2021/01/17 05:03:19;;;;;;;12.60;2.70;;;23.70;72.70;;;;;;5104680;27;20471;-82
2021/01/17 05:06:26;;;;;;;8.43;2.30;;;23.40;71.80;;;;;;5096567;28;20379;-81
2021/01/17 05:09:05;;;;;;;13.40;2.60;;;23.20;74.80;;;;;;5105884;28;20511;-82
2021/01/17 05:11:39;;;;;;;9.52;2.50;;;23.20;76.10;;;;;;5109352;28;20381;-81
2021/01/17 05:14:18;;;;;;;10.48;2.53;;;23.10;75.60;;;;;;5100401;28;20765;-81
2021/01/17 05:16:47;;;;;;;13.73;2.70;;;22.90;75.50;;;;;;5100573;28;20386;-82
2021/01/17 05:19:17;;;;;;;10.70;2.53;;;23.00;76.30;;;;;;5096918;28;20387;-81
2021/01/17 05:21:51;;;;;;;13.52;2.95;;;22.80;78.20;;;;;;5098794;28;20729;-83
2021/01/17 05:24:20;;;;;;;15.73;2.92;;;23.00;76.80;;;;;;5099476;28;20391;-81
2021/01/17 05:26:59;;;;;;;12.38;2.85;;;22.90;77.30;;;;;;5096372;28;20412;-81
2021/01/17 05:29:28;;;;;;;13.68;2.90;;;22.80;77.90;;;;;;5099499;28;20406;-81
2021/01/17 05:32:00;;;;;;;11.95;2.85;;;22.50;79.10;;;;;;5105273;28;20423;-81
2021/01/17 05:34:29;;;;;;;14.38;2.80;;;22.40;78.70;;;;;;5101564;28;20424;-82
2021/01/17 05:37:15;;;;;;;10.20;2.50;;;22.30;79.70;;;;;;5095385;28;20384;-82
2021/01/17 05:39:54;;;;;;;14.48;2.90;;;22.30;79.60;;;;;;5101311;28;20403;-82
2021/01/17 05:42:29;;;;;;;12.23;2.70;;;22.50;78.50;;;;;;5108305;28;20394;-81
2021/01/17 05:44:58;;;;;;;16.02;2.95;;;22.50;78.40;;;;;;5107877;28;20410;-80
2021/01/17 05:47:26;;;;;;;15.25;3.45;;;22.30;80.60;;;;;;5104747;28;20436;-81
2021/01/17 05:50:09;;;;;;;13.00;2.90;;;22.20;80.80;;;;;;5111857;27;20383;-81
2021/01/17 05:52:36;;;;;;;11.65;2.78;;;22.30;81.20;;;;;;5110585;28;20440;-82
2021/01/17 05:55:05;;;;;;;15.52;2.88;;;22.30;79.90;;;;;;5111272;28;20872;-81
2021/01/17 05:57:34;;;;;;;12.73;2.70;;;22.40;78.90;;;;;;5110904;28;20383;-81
2021/01/17 06:00:04;;;;;;;13.30;2.90;;;22.20;79.40;;;;;;5110650;28;20367;-81
2021/01/17 06:02:31;;;;;;;8.93;2.50;;;22.20;80.10;;;;;;5109312;28;20448;-82
2021/01/17 06:05:02;;;;;;;13.43;2.60;;;22.20;79.70;;;;;;5102124;28;21280;-82
2021/01/17 06:07:31;;;;;;;13.77;2.95;;;22.30;79.80;;;;;;5112361;27;20495;-81
2021/01/17 06:10:04;;;;;;;13.65;2.95;;;22.20;80.10;;;;;;5095578;28;20775;-81
2021/01/17 06:12:36;;;;;;;10.07;2.40;;;22.20;80.10;;;;;;5105012;28;20409;-80
2021/01/17 06:15:09;;;;;;;12.52;2.53;;;22.20;81.10;;;;;;5098063;28;20380;-81
2021/01/17 06:17:39;;;;;;;12.15;3.15;;;22.30;79.80;;;;;;5091198;28;20392;-81
2021/01/17 06:20:09;;;;;;;9.40;2.53;;;22.30;81.10;;;;;;5094536;28;20397;-82
2021/01/17 06:22:37;;;;;;;12.43;2.85;;;22.20;79.50;;;;;;5107583;28;20410;-82
2021/01/17 06:25:06;;;;;;;10.83;2.10;;;22.10;80.20;;;;;;5110540;28;20390;-84
2021/01/17 06:27:33;;;;;;;10.60;2.42;;;21.80;79.70;;;;;;5099774;28;20802;-80
2021/01/17 06:30:00;;;;;;;16.13;3.00;;;21.60;81.30;;;;;;5097810;28;20927;-81
2021/01/17 06:32:31;;;;;;;14.80;3.20;;;21.60;81.30;;;;;;5109438;28;20783;-80
2021/01/17 06:34:59;;;;;;;15.90;3.33;;;21.70;82.00;;;;;;5110255;28;20975;-81
2021/01/17 06:37:30;;;;;;;14.00;3.10;;;21.80;82.10;;;;;;5107876;28;20447;-83
2021/01/17 06:39:59;;;;;;;18.02;3.22;;;21.70;81.70;;;;;;5102702;28;20869;-81
2021/01/17 06:42:26;;;;;;;13.33;3.37;;;21.70;81.90;;;;;;5109516;28;20760;-80
2021/01/17 06:44:54;;;;;;;14.98;2.72;;;21.60;83.20;;;;;;5107567;28;20422;-81
2021/01/17 06:47:25;;;;;;;16.88;3.08;;;21.60;82.20;;;;;;5098173;28;20410;-80
2021/01/17 06:49:54;;;;;;;14.25;3.15;;;21.50;83.30;;;;;;5097200;28;20516;-81
2021/01/17 06:52:22;;;;;;;10.50;2.38;;;21.50;83.60;;;;;;5100742;28;20393;-81
2021/01/17 06:54:52;;;;;;;13.40;3.03;;;21.40;83.40;;;;;;5110270;28;20732;-82
2021/01/17 06:57:20;;;;;;;16.90;3.50;;;21.30;83.90;;;;;;5089584;28;20537;-81
2021/01/17 06:59:51;;;;;;;10.32;2.40;;;21.20;85.20;;;;;;5089417;28;20364;-81
2021/01/17 07:02:35;;;;;;;14.43;2.85;;;21.20;84.50;;;;;;5093588;28;20397;-81
2021/01/17 07:05:24;;;;;;;13.27;2.65;;;21.20;85.00;;;;;;5095351;28;20395;-81
2021/01/17 07:08:00;;;;;;;12.18;2.70;;;21.20;85.40;;;;;;5093281;28;20410;-81
2021/01/17 07:10:32;;;;;;;14.43;2.83;;;21.20;84.40;;;;;;5095095;28;20902;-81
2021/01/17 07:13:06;;;;;;;14.57;2.72;;;21.10;85.10;;;;;;5095367;28;20403;-81
2021/01/17 07:15:41;;;;;;;15.27;3.25;;;21.10;85.20;;;;;;5095113;28;20395;-82
2021/01/17 07:18:13;;;;;;;13.80;2.80;;;21.10;85.20;;;;;;5088274;28;20820;-82
2021/01/17 07:20:48;;;;;;;10.98;2.28;;;21.10;85.00;;;;;;5088677;28;20762;-82
2021/01/17 07:23:17;;;;;;;13.63;2.72;;;21.00;85.80;;;;;;5093606;28;20386;-82
2021/01/17 07:25:48;;;;;;;15.63;3.08;;;21.00;85.70;;;;;;5095718;28;20391;-82
2021/01/17 07:28:17;;;;;;;16.33;3.08;;;20.90;85.70;;;;;;5108990;28;20398;-81
2021/01/17 07:30:55;;;;;;;17.65;3.38;;;20.90;86.40;;;;;;5095598;28;20389;-83
2021/01/17 07:33:27;;;;;;;14.95;3.00;;;20.90;86.20;;;;;;5096288;28;20847;-82
2021/01/17 07:35:58;;;;;;;15.00;2.70;;;20.80;86.30;;;;;;5099475;28;20366;-81
2021/01/17 07:38:33;;;;;;;15.50;2.70;;;20.70;86.70;;;;;;5094877;28;20392;-81
2021/01/17 07:41:12;;;;;;;11.05;2.40;;;20.60;86.80;;;;;;5092354;28;20383;-83
2021/01/17 07:43:44;;;;;;;15.10;2.92;;;20.50;87.40;;;;;;5097346;28;20418;-82
2021/01/17 07:46:14;;;;;;;17.10;3.17;;;20.50;87.90;;;;;;5093232;28;20382;-82
2021/01/17 07:48:42;;;;;;;17.93;3.40;;;20.50;88.20;;;;;;5096388;28;20386;-83
2021/01/17 07:51:11;;;;;;;12.45;3.20;;;20.50;88.50;;;;;;5095290;28;20380;-82
2021/01/17 07:53:38;;;;;;;11.67;3.10;;;20.50;88.40;;;;;;5099052;28;20407;-82
2021/01/17 07:56:25;;;;;;;14.50;3.20;;;20.60;87.20;;;;;;5102304;28;20394;-83
2021/01/17 07:58:53;;;;;;;14.83;2.73;;;20.50;87.60;;;;;;5102326;28;20446;-82
2021/01/17 08:01:47;;;;;;;11.43;2.35;;;20.50;88.40;;;;;;5114598;27;20396;-82
2021/01/17 08:04:16;;;;;;;12.97;2.70;;;20.50;87.70;;;;;;5093938;28;20420;-82
2021/01/17 08:06:45;;;;;;;17.20;2.90;;;20.50;87.90;;;;;;5088092;28;20780;-82
2021/01/17 08:09:16;;;;;;;11.95;2.65;;;20.40;88.80;;;;;;5095823;28;20402;-82
2021/01/17 08:11:49;;;;;;;11.55;2.53;;;20.40;88.70;;;;;;5100660;28;20492;-81
2021/01/17 08:14:23;;;;;;;14.85;2.97;;;20.30;88.70;;;;;;5101074;28;20398;-81
2021/01/17 08:17:09;;;;;;;9.35;2.40;;;20.30;88.60;;;;;;5096403;28;20392;-81
2021/01/17 08:19:41;;;;;;;15.20;2.78;;;20.20;89.50;;;;;;5091397;28;20439;-81
2021/01/17 08:22:23;;;;;;;15.18;2.95;;;20.20;90.10;;;;;;5100820;28;20383;-81
2021/01/17 08:24:54;;;;;;;15.40;3.03;;;20.20;90.00;;;;;;5099043;28;20824;-81
2021/01/17 08:27:30;;;;;;;13.93;3.27;;;20.20;90.10;;;;;;5089408;28;20408;-81
2021/01/17 08:30:03;;;;;;;16.52;3.17;;;20.10;90.10;;;;;;5095870;28;20415;-81
2021/01/17 08:32:37;;;;;;;14.88;3.25;;;20.10;90.20;;;;;;5089416;28;20434;-81
2021/01/17 08:35:19;;;;;;;15.80;2.97;;;20.10;90.30;;;;;;5095165;28;21454;-81
2021/01/17 08:37:53;;;;;;;12.93;2.67;;;20.10;90.60;;;;;;5093352;28;20384;-81
2021/01/17 08:40:30;;;;;;;10.98;2.45;;;20.00;90.60;;;;;;5104256;28;20381;-82
2021/01/17 08:42:59;;;;;;;16.08;2.88;;;20.00;91.00;;;;;;5105041;28;20387;-82
2021/01/17 08:45:29;;;;;;;13.23;3.00;;;20.00;90.90;;;;;;5105891;28;20402;-81
2021/01/17 08:48:02;;;;;;;16.35;3.45;;;20.00;90.90;;;;;;5106175;28;20411;-82
2021/01/17 08:50:29;;;;;;;14.38;2.88;;;19.90;91.00;;;;;;5109133;28;20374;-82
2021/01/17 08:53:08;;;;;;;16.20;2.55;;;19.90;91.20;;;;;;5094438;28;20372;-81
2021/01/17 08:55:45;;;;;;;15.33;2.80;;;19.80;91.20;;;;;;5099548;28;20391;-83
2021/01/17 08:58:16;;;;;;;12.65;2.63;;;19.80;91.70;;;;;;5092713;28;20431;-82
2021/01/17 09:00:57;;;;;;;16.90;3.08;;;19.70;91.80;;;;;;5110156;27;20478;-82
2021/01/17 09:03:28;;;;;;;12.93;2.77;;;19.70;91.90;;;;;;5090358;28;20737;-81
2021/01/17 09:06:01;;;;;;;14.27;2.90;;;19.60;92.10;;;;;;5069819;28;20496;-81
2021/01/17 09:08:29;;;;;;;14.93;3.17;;;19.60;92.30;;;;;;5096615;27;20400;-81
2021/01/17 09:10:57;;;;;;;14.45;3.20;;;19.60;92.40;;;;;;5094732;28;20395;-81
2021/01/17 09:13:26;;;;;;;14.60;2.92;;;19.50;92.40;;;;;;5108260;28;20394;-83
2021/01/17 09:16:08;;;;;;;14.75;3.00;;;19.50;92.50;;;;;;5108393;28;20371;-82
2021/01/17 09:18:37;;;;;;;13.88;2.63;;;19.50;92.50;;;;;;5092729;28;20404;-82
2021/01/17 09:21:09;;;;;;;14.00;2.67;;;19.40;92.60;;;;;;5097155;28;20430;-81
2021/01/17 09:23:40;;;;;;;16.83;2.90;;;19.40;92.60;;;;;;5095250;28;20400;-82
2021/01/17 09:26:07;;;;;;;17.38;2.78;;;19.40;92.50;;;;;;5095872;28;20401;-83
2021/01/17 09:28:34;;;;;;;14.30;2.93;;;19.40;92.80;;;;;;5094921;28;20450;-81
2021/01/17 09:31:02;;;;;;;13.38;2.92;;;19.30;92.90;;;;;;5095963;28;20399;-81
2021/01/17 09:33:30;;;;;;;13.05;2.92;;;19.30;93.00;;;;;;5091928;28;20406;-82
2021/01/17 09:35:57;;;;;;;12.63;2.67;;;19.20;93.10;;;;;;5105878;28;20904;-82
2021/01/17 09:38:26;;;;;;;12.10;2.63;;;19.20;93.30;;;;;;5103705;28;20398;-82
2021/01/17 09:40:56;;;;;;;13.82;2.72;;;19.10;93.40;;;;;;5091968;28;20475;-83
2021/01/17 09:43:23;;;;;;;15.38;3.15;;;19.10;93.40;;;;;;5096365;28;20408;-82
2021/01/17 09:45:57;;;;;;;13.82;2.75;;;19.10;93.50;;;;;;5087737;28;20415;-82
2021/01/17 09:48:25;;;;;;;12.80;2.50;;;19.10;93.60;;;;;;5093491;28;20400;-82
2021/01/17 09:50:52;;;;;;;15.43;2.83;;;19.10;93.70;;;;;;5091594;28;20390;-81
2021/01/17 09:53:20;;;;;;;15.57;3.17;;;19.00;93.70;;;;;;5097840;28;20499;-81
2021/01/17 09:55:48;;;;;;;13.45;2.75;;;19.00;93.80;;;;;;5096577;28;20378;-81
2021/01/17 09:58:16;;;;;;;13.75;2.85;;;18.90;93.80;;;;;;5103531;28;20410;-81
2021/01/17 10:00:44;;;;;;;13.77;2.90;;;18.90;93.90;;;;;;5106829;28;20389;-82
2021/01/17 10:03:15;;;;;;;16.17;2.53;;;18.90;93.90;;;;;;5107515;28;20379;-82
2021/01/17 10:05:45;;;;;;;13.93;3.20;;;18.90;93.90;;;;;;5107540;28;21160;-82
2021/01/17 10:08:14;;;;;;;13.35;2.58;;;18.90;94.00;;;;;;5107778;28;20765;-82
2021/01/17 10:10:47;;;;;;;10.98;2.50;;;18.80;94.10;;;;;;5106992;28;20437;-83
2021/01/17 10:13:15;;;;;;;15.75;3.05;;;18.80;94.10;;;;;;5075073;28;20391;-82
2021/01/17 10:15:42;;;;;;;12.25;2.60;;;18.80;94.30;;;;;;5086697;28;20384;-82
2021/01/17 10:18:09;;;;;;;13.95;3.10;;;18.90;94.30;;;;;;5092841;28;20389;-82
2021/01/17 10:20:42;;;;;;;12.25;2.80;;;18.80;94.30;;;;;;5102190;28;20387;-81
2021/01/17 10:23:16;;;;;;;10.80;2.72;;;18.80;94.30;;;;;;5105738;28;20387;-81
2021/01/17 10:25:45;;;;;;;18.13;3.40;;;18.80;94.30;;;;;;5086967;28;20387;-82
2021/01/17 10:28:13;;;;;;;14.52;2.72;;;18.70;94.40;;;;;;5093601;28;20400;-82
2021/01/17 10:30:42;;;;;;;16.67;2.80;;;18.70;94.50;;;;;;5097313;28;20397;-82
2021/01/17 10:33:13;;;;;;;9.93;2.70;;;18.70;94.50;;;;;;5106314;28;20403;-82
2021/01/17 10:35:44;;;;;;;13.13;3.03;;;18.70;94.70;;;;;;5094432;28;21017;-82
2021/01/17 10:38:13;;;;;;;12.88;2.90;;;18.70;94.60;;;;;;5108387;28;20375;-82
2021/01/17 10:40:41;;;;;;;16.50;3.10;;;18.70;94.50;;;;;;5101540;28;20570;-82
2021/01/17 10:43:29;;;;;;;12.25;2.95;;;18.70;94.40;;;;;;5095465;28;20867;-82
2021/01/17 10:46:10;;;;;;;13.73;3.03;;;18.70;94.60;;;;;;5080707;28;20404;-82
2021/01/17 10:49:12;;;;;;;14.10;2.95;;;18.70;94.60;;;;;;5076097;28;20564;-82
2021/01/17 10:51:44;;;;;;;16.90;3.23;;;18.70;94.60;;;;;;5077711;28;20394;-82
2021/01/17 10:54:21;;;;;;;11.75;2.88;;;18.70;94.70;;;;;;5071383;28;20433;-82
2021/01/17 10:56:48;;;;;;;13.98;2.95;;;18.80;94.60;;;;;;5069584;28;20406;-82
2021/01/17 10:59:20;;;;;;;10.27;2.50;;;18.80;94.50;;;;;;5077563;28;20380;-82
2021/01/17 11:01:47;;;;;;;12.05;2.78;;;18.90;94.30;;;;;;5073300;28;20409;-82
2021/01/17 11:04:17;;;;;;;13.93;3.03;;;18.90;94.40;;;;;;5087635;28;20463;-83
2021/01/17 11:06:46;;;;;;;14.25;3.10;;;19.00;94.40;;;;;;5087266;28;20443;-82
2021/01/17 11:09:18;;;;;;;13.60;2.83;;;19.00;94.20;;;;;;5088044;28;20384;-82
2021/01/17 11:11:48;;;;;;;15.93;3.30;;;19.00;94.20;;;;;;5068880;28;20370;-82
2021/01/17 11:14:15;;;;;;;14.02;3.10;;;19.10;94.20;;;;;;5071456;28;20424;-83
2021/01/17 11:16:51;;;;;;;10.57;2.83;;;19.10;94.20;;;;;;5072736;28;20400;-82
2021/01/17 11:19:18;;;;;;;9.02;2.47;;;19.10;94.20;;;;;;5077004;28;20392;-82
2021/01/17 11:21:54;;;;;;;17.40;3.05;;;19.10;94.00;;;;;;5076017;28;20791;-82
2021/01/17 11:24:36;;;;;;;14.25;2.92;;;19.20;94.10;;;;;;5077770;28;20378;-82
2021/01/17 11:27:14;;;;;;;14.13;2.70;;;19.20;94.00;;;;;;5072501;28;21313;-81
2021/01/17 11:29:44;;;;;;;13.85;2.83;;;19.20;94.00;;;;;;5077170;28;20387;-82
2021/01/17 11:32:12;;;;;;;14.88;2.90;;;19.20;94.10;;;;;;5083314;28;20392;-81
2021/01/17 11:34:41;;;;;;;9.43;2.80;;;19.20;94.20;;;;;;5084645;28;20395;-81
2021/01/17 11:37:09;;;;;;;15.10;2.80;;;19.20;94.20;;;;;;5078022;28;20411;-81
2021/01/17 11:39:36;;;;;;;14.27;2.67;;;19.10;94.30;;;;;;5076054;28;20548;-81
2021/01/17 11:42:04;;;;;;;14.35;3.10;;;19.20;94.40;;;;;;5076916;28;20424;-81
2021/01/17 11:44:35;;;;;;;8.52;2.53;;;19.20;94.30;;;;;;5092387;28;20935;-82
2021/01/17 11:47:03;;;;;;;15.30;3.25;;;19.20;94.20;;;;;;5103412;28;20430;-82
2021/01/17 11:49:30;;;;;;;12.05;2.70;;;19.20;94.30;;;;;;5088744;28;20483;-82
2021/01/17 11:52:11;;;;;;;16.58;3.38;;;19.20;94.30;;;;;;5104235;28;20510;-81
2021/01/17 11:54:38;;;;;;;12.75;2.97;;;19.20;94.20;;;;;;5099481;28;20461;-82
2021/01/17 11:57:13;;;;;;;10.75;2.75;;;19.20;94.10;;;;;;5107295;28;20476;-82
2021/01/17 11:59:40;;;;;;;14.25;2.75;;;19.20;94.20;;;;;;5108020;28;20402;-82
2021/01/17 12:02:21;;;;;;;14.18;2.70;;;19.30;94.30;;;;;;5095819;28;20391;-81
2021/01/17 12:04:59;;;;;;;12.63;2.90;;;19.20;94.20;;;;;;5092804;28;20392;-81
2021/01/17 12:07:27;;;;;;;12.98;3.22;;;19.20;94.20;;;;;;5097081;28;20437;-81
2021/01/17 12:10:08;;;;;;;15.63;3.00;;;19.30;94.30;;;;;;5107829;28;20393;-81
2021/01/17 12:12:37;;;;;;;15.75;2.47;;;19.30;94.30;;;;;;5103706;28;20405;-82
2021/01/17 12:15:09;;;;;;;12.63;2.90;;;19.30;94.30;;;;;;5101788;28;20434;-82
2021/01/17 12:17:37;;;;;;;13.02;2.85;;;19.30;94.40;;;;;;5092855;28;20811;-82
2021/01/17 12:20:05;;;;;;;16.63;3.10;;;19.30;94.30;;;;;;5101600;28;20487;-81
2021/01/17 12:22:32;;;;;;;10.57;2.60;;;19.30;94.40;;;;;;5088678;28;20716;-81
2021/01/17 12:24:59;;;;;;;14.33;3.30;;;19.40;94.40;;;;;;5090322;28;20879;-81
2021/01/17 12:27:26;;;;;;;13.27;3.33;;;19.40;94.40;;;;;;5103180;28;20445;-82
2021/01/17 12:29:54;;;;;;;14.65;3.33;;;19.40;94.30;;;;;;5097819;28;20384;-82
2021/01/17 12:32:22;;;;;;;14.07;3.20;;;19.40;94.30;;;;;;5099547;28;20380;-82
2021/01/17 12:34:49;;;;;;;13.02;3.55;;;19.40;94.40;;;;;;5110174;28;20396;-81
2021/01/17 12:37:16;;;;;;;11.85;2.67;;;19.30;94.40;;;;;;5109512;28;20417;-81
2021/01/17 12:39:43;;;;;;;16.45;3.22;;;19.40;94.40;;;;;;5105200;28;20888;-81
2021/01/17 12:42:10;;;;;;;13.95;2.80;;;19.40;94.50;;;;;;5111407;28;20469;-81
2021/01/17 12:44:37;;;;;;;17.77;2.80;;;19.40;94.80;;;;;;5097533;28;20426;-82
2021/01/17 12:47:06;;;;;;;10.57;2.88;;;19.40;94.30;;;;;;5106670;28;20815;-81
2021/01/17 12:49:33;;;;;;;13.85;2.92;;;19.40;94.40;;;;;;5108188;28;20383;-81
2021/01/17 12:52:00;;;;;;;17.50;3.15;;;19.40;94.50;;;;;;5108459;28;20420;-81
2021/01/17 12:54:27;;;;;;;17.90;3.13;;;19.40;94.50;;;;;;5107637;28;20418;-82
2021/01/17 12:56:58;;;;;;;12.98;2.85;;;19.40;94.50;;;;;;5109434;28;20531;-81
2021/01/17 12:59:25;;;;;;;14.02;3.28;;;19.40;94.60;;;;;;5098683;28;20428;-82